world map with LIEB marked

LIEB - Location

This information may not be accurate or current and is not valid for navigation or flight planning. No warranty of fitness for any purpose is made or implied.

flag of Sardiniaflag of Italy

Donate via PayPal

Additional information is available on the NEW Great Circle Mapper

Location
City:  Cape Bellavista, Sardinia, Italy
ICAO:LIEB

Details
Latitude:39°56'N (39.933)
Longitude:9°43'E (9.717)
Elevation:512 ft (156 m)

Time
Timezone:UTC+1 (DST+4)
Local Time:

Weather
METAR:LIEB  041355Z 04035KT 9999 FEW020TCU SCT030 11/10 Q1015 RMK BKN QUK 4 QUL 5 NE VIS MAR 15 KM MON W CLD SCT VIS MIN 9999

Related Locations
Nearby:
Farthest:CHT: 12021 mi / 19346 km
Waitangi [Tuuta], CIT, NZ

Find:

   beyond  
but within

Other Information
Maps:
Sources:

  


 


Great Circle Mapper   Great Circle Mapper
Great Circle Mapper FAQ   Great Circle Mapper FAQ
  Karl's Home Page
KLSē   KLSē Home
   GC on Facebook
Airlines of the World   Airlines of the World
Donate via PayPal


Copyright © 2004-2020, Karl L. Swartz. All rights reserved.
All trademarks mentioned herein belong to their respective owners.

Please see credits for attribution and copyright information.

Karl Swartz <karl@kls2.com>
  Powered by FreeBSD
Valid HTML 4.01!
Labeled with ICRA
hCard Microformat
Geo Microformat